Time;durP1;ratioP1;P1;durP2;ratioP2;P2;SDS_P1;SDS_P2;PMS_P1;PMS_P2;Temp;Humidity;BMP_temperature;BMP_pressure;BME280_temperature;BME280_humidity;BME280_pressure;Samples;Min_cycle;Max_cycle;Signal;HPM_P1;HPM_P2
2021/01/26 00:02:15;;;;;;;16.77;11.33;;;;;;;;;;4878272;29;20557;-89
2021/01/26 00:05:19;;;;;;;16.30;11.60;;;;;;;;;;4888785;29;20549;-89
2021/01/26 00:08:23;;;;;;;18.33;12.23;;;;;;;;;;4893399;29;20643;-89
2021/01/26 00:11:27;;;;;;;16.90;11.97;;;;;;;;;;4896847;29;20624;-89
2021/01/26 00:14:31;;;;;;;15.57;11.80;;;;;;;;;;4907922;29;20548;-89
2021/01/26 00:17:36;;;;;;;19.63;12.77;;;;;;;;;;4885319;29;21211;-89
2021/01/26 00:20:40;;;;;;;16.60;12.07;;;;;;;;;;4880378;29;20622;-89
2021/01/26 00:23:44;;;;;;;16.57;11.30;;;;;;;;;;4880190;29;20621;-89
2021/01/26 00:26:48;;;;;;;16.30;11.53;;;;;;;;;;4869497;29;20562;-89
2021/01/26 00:29:52;;;;;;;17.73;12.57;;;;;;;;;;4869623;29;20622;-89
2021/01/26 00:33:03;;;;;;;17.27;11.83;;;;;;;;;;4869589;29;20555;-89
2021/01/26 00:36:07;;;;;;;17.97;12.40;;;;;;;;;;4880240;29;20563;-89
2021/01/26 00:39:11;;;;;;;17.47;12.17;;;;;;;;;;4880127;29;21034;-89
2021/01/26 00:42:15;;;;;;;20.40;12.73;;;;;;;;;;4869362;29;20574;-90
2021/01/26 00:45:22;;;;;;;19.30;13.33;;;;;;;;;;4870568;29;20555;-89
2021/01/26 00:48:26;;;;;;;19.53;13.17;;;;;;;;;;4917449;29;21191;-89
2021/01/26 00:51:31;;;;;;;20.77;14.77;;;;;;;;;;4895174;29;20602;-90
2021/01/26 00:54:35;;;;;;;21.23;13.67;;;;;;;;;;4888298;29;20934;-90
2021/01/26 00:57:40;;;;;;;19.77;13.60;;;;;;;;;;4887662;29;21096;-89
2021/01/26 01:00:45;;;;;;;19.10;12.33;;;;;;;;;;4887730;29;20661;-90
2021/01/26 01:03:53;;;;;;;16.40;11.30;;;;;;;;;;4877892;29;20562;-90
2021/01/26 01:06:57;;;;;;;18.77;11.90;;;;;;;;;;4887557;29;20891;-89
2021/01/26 01:10:03;;;;;;;15.57;11.40;;;;;;;;;;4885974;29;20667;-89
2021/01/26 01:13:10;;;;;;;15.80;11.60;;;;;;;;;;4905980;29;20697;-89
2021/01/26 01:16:15;;;;;;;15.13;10.47;;;;;;;;;;4906127;29;20569;-89
2021/01/26 01:19:19;;;;;;;16.23;10.50;;;;;;;;;;4905947;29;21047;-89
2021/01/26 01:22:23;;;;;;;13.90;9.77;;;;;;;;;;4906262;29;20928;-90
2021/01/26 01:25:28;;;;;;;13.43;9.57;;;;;;;;;;4858294;29;20551;-90
2021/01/26 01:28:32;;;;;;;14.40;10.47;;;;;;;;;;4858030;29;20547;-89
2021/01/26 01:31:36;;;;;;;16.03;10.63;;;;;;;;;;4868389;29;20558;-89
2021/01/26 01:34:42;;;;;;;14.77;10.33;;;;;;;;;;4868903;29;20578;-89
2021/01/26 01:37:47;;;;;;;16.10;10.90;;;;;;;;;;4868913;29;20550;-90
2021/01/26 01:40:53;;;;;;;16.63;10.80;;;;;;;;;;4902921;29;20636;-90
2021/01/26 01:43:58;;;;;;;16.23;10.73;;;;;;;;;;4894758;29;20608;-89
2021/01/26 01:47:06;;;;;;;16.23;10.90;;;;;;;;;;4905635;29;20568;-90
2021/01/26 01:50:17;;;;;;;15.70;10.30;;;;;;;;;;4895162;29;20623;-90
2021/01/26 01:53:29;;;;;;;17.50;11.43;;;;;;;;;;4906103;29;20565;-89
2021/01/26 01:56:42;;;;;;;15.80;10.13;;;;;;;;;;4906319;29;20549;-90
2021/01/26 01:59:51;;;;;;;15.13;10.00;;;;;;;;;;4905545;29;21035;-90
2021/01/26 02:03:01;;;;;;;15.10;10.43;;;;;;;;;;4905974;29;20909;-90
2021/01/26 02:06:06;;;;;;;13.67;9.60;;;;;;;;;;4905334;29;20561;-90
2021/01/26 02:09:26;;;;;;;14.90;9.57;;;;;;;;;;4875844;29;21267;-90
2021/01/26 02:12:30;;;;;;;14.53;8.27;;;;;;;;;;4897622;29;20546;-90
2021/01/26 02:15:35;;;;;;;12.77;8.30;;;;;;;;;;4897682;29;20543;-90
2021/01/26 02:19:06;;;;;;;12.97;8.67;;;;;;;;;;4897531;29;20601;-90
2021/01/26 02:22:47;;;;;;;11.73;8.20;;;;;;;;;;4886884;29;20904;-90
2021/01/26 02:26:06;;;;;;;12.70;8.13;;;;;;;;;;4886848;29;20594;-90
2021/01/26 02:29:52;;;;;;;11.10;7.50;;;;;;;;;;4875797;29;20625;-89
2021/01/26 02:33:11;;;;;;;9.57;6.67;;;;;;;;;;4857648;29;20544;-90
2021/01/26 02:36:52;;;;;;;11.50;7.63;;;;;;;;;;4868331;29;20548;-90
2021/01/26 02:40:18;;;;;;;11.43;7.53;;;;;;;;;;4878537;29;20666;-90
2021/01/26 02:43:55;;;;;;;12.37;7.63;;;;;;;;;;4878747;29;20551;-90
2021/01/26 02:47:06;;;;;;;11.30;7.33;;;;;;;;;;4868159;29;20551;-90
2021/01/26 02:50:22;;;;;;;9.20;6.83;;;;;;;;;;4867659;29;20614;-90
2021/01/26 02:53:27;;;;;;;11.13;7.20;;;;;;;;;;4867942;29;20547;-90
2021/01/26 02:56:54;;;;;;;11.70;7.97;;;;;;;;;;4884258;29;20966;-91
2021/01/26 03:00:17;;;;;;;11.33;8.03;;;;;;;;;;4879017;29;20668;-90
2021/01/26 03:03:29;;;;;;;11.13;8.07;;;;;;;;;;4882272;29;21095;-90
2021/01/26 03:06:35;;;;;;;12.63;7.73;;;;;;;;;;4883002;29;20612;-90
2021/01/26 03:09:43;;;;;;;11.43;8.70;;;;;;;;;;4908332;29;20643;-90
2021/01/26 03:12:56;;;;;;;13.63;9.20;;;;;;;;;;4908570;29;20546;-90
2021/01/26 03:16:12;;;;;;;16.07;9.63;;;;;;;;;;4908221;29;20612;-90
2021/01/26 03:19:19;;;;;;;14.70;9.63;;;;;;;;;;4908399;29;20624;-91
2021/01/26 03:22:26;;;;;;;14.07;9.73;;;;;;;;;;4908248;29;20621;-90
2021/01/26 03:25:33;;;;;;;14.37;9.93;;;;;;;;;;4897508;29;20605;-90
2021/01/26 03:28:39;;;;;;;15.40;9.70;;;;;;;;;;4908149;29;20557;-90
2021/01/26 03:31:47;;;;;;;15.97;10.93;;;;;;;;;;4908241;29;20533;-90
2021/01/26 03:34:53;;;;;;;15.47;10.83;;;;;;;;;;4892136;29;20632;-91
2021/01/26 03:38:21;;;;;;;14.80;10.33;;;;;;;;;;4890224;29;20640;-91
2021/01/26 03:41:25;;;;;;;15.63;10.33;;;;;;;;;;4896948;29;20648;-91
2021/01/26 03:44:29;;;;;;;16.57;10.70;;;;;;;;;;4898432;29;20959;-91
2021/01/26 03:47:36;;;;;;;16.30;10.43;;;;;;;;;;4909084;29;20556;-90
2021/01/26 03:50:55;;;;;;;19.30;11.97;;;;;;;;;;4902177;29;20616;-91
2021/01/26 03:54:17;;;;;;;18.07;11.93;;;;;;;;;;4896022;29;20608;-90
2021/01/26 03:57:36;;;;;;;18.50;12.20;;;;;;;;;;4878712;29;20530;-90
2021/01/26 04:00:52;;;;;;;19.17;11.20;;;;;;;;;;4899238;29;20664;-90
2021/01/26 04:04:08;;;;;;;18.63;12.80;;;;;;;;;;4889177;29;20550;-90
2021/01/26 04:07:20;;;;;;;18.37;12.33;;;;;;;;;;4888318;29;20558;-90
2021/01/26 04:10:28;;;;;;;18.60;11.83;;;;;;;;;;4891530;29;20746;-91
2021/01/26 04:13:38;;;;;;;18.63;12.43;;;;;;;;;;4885121;29;20617;-91
2021/01/26 04:16:52;;;;;;;18.97;12.80;;;;;;;;;;4877973;29;20553;-91
2021/01/26 04:20:06;;;;;;;19.13;12.43;;;;;;;;;;4878028;29;20664;-90
2021/01/26 04:23:12;;;;;;;18.23;12.87;;;;;;;;;;4878226;29;20570;-91
2021/01/26 04:26:17;;;;;;;18.27;11.43;;;;;;;;;;4891595;29;20674;-91
2021/01/26 04:29:22;;;;;;;17.47;11.70;;;;;;;;;;4907277;29;20639;-91
2021/01/26 04:32:26;;;;;;;15.83;11.17;;;;;;;;;;4893520;29;20605;-91
2021/01/26 04:35:30;;;;;;;16.10;11.40;;;;;;;;;;4888342;29;20557;-91
2021/01/26 04:38:35;;;;;;;18.40;12.27;;;;;;;;;;4891199;29;20558;-89
2021/01/26 04:41:41;;;;;;;15.73;10.83;;;;;;;;;;4892042;29;20992;-89
2021/01/26 04:45:00;;;;;;;17.30;11.17;;;;;;;;;;4896181;29;20596;-89
2021/01/26 04:48:10;;;;;;;18.17;10.53;;;;;;;;;;4907104;29;20552;-90
2021/01/26 04:51:34;;;;;;;16.77;11.47;;;;;;;;;;4917584;29;20561;-89
2021/01/26 04:54:45;;;;;;;15.00;10.70;;;;;;;;;;4898867;29;20613;-89
2021/01/26 04:57:49;;;;;;;13.67;8.97;;;;;;;;;;4888199;29;20550;-89
2021/01/26 05:01:21;;;;;;;14.37;8.93;;;;;;;;;;4858974;29;20587;-89
2021/01/26 05:04:32;;;;;;;12.93;8.80;;;;;;;;;;4858356;29;20543;-89
2021/01/26 05:07:43;;;;;;;13.67;9.50;;;;;;;;;;4869239;29;20563;-90
2021/01/26 05:10:51;;;;;;;13.53;9.17;;;;;;;;;;4956951;23;20698;-89
2021/01/26 05:14:08;;;;;;;12.00;8.67;;;;;;;;;;4944389;29;20578;-89
2021/01/26 05:17:28;;;;;;;12.97;9.03;;;;;;;;;;4944032;29;20596;-89
2021/01/26 05:20:40;;;;;;;12.77;9.07;;;;;;;;;;4924738;29;21240;-89
2021/01/26 05:23:50;;;;;;;15.27;9.53;;;;;;;;;;4925209;29;20572;-90
2021/01/26 05:26:55;;;;;;;12.07;8.90;;;;;;;;;;4936100;29;20552;-87
2021/01/26 05:30:01;;;;;;;14.50;9.47;;;;;;;;;;4935927;29;20628;-87
2021/01/26 05:33:13;;;;;;;12.57;9.37;;;;;;;;;;4925236;29;20549;-88
2021/01/26 05:36:17;;;;;;;13.50;9.40;;;;;;;;;;4948113;29;21183;-88
2021/01/26 05:39:29;;;;;;;13.87;9.47;;;;;;;;;;4943710;28;20639;-88
2021/01/26 05:42:34;;;;;;;13.97;8.90;;;;;;;;;;4943984;29;20544;-88
2021/01/26 05:45:44;;;;;;;13.23;9.37;;;;;;;;;;4952713;29;21166;-87
2021/01/26 05:48:50;;;;;;;12.97;9.23;;;;;;;;;;4941927;29;20543;-86
2021/01/26 05:51:54;;;;;;;14.17;9.30;;;;;;;;;;4935453;29;20596;-89
2021/01/26 05:54:59;;;;;;;12.73;8.77;;;;;;;;;;4949950;29;21157;-88
2021/01/26 05:58:16;;;;;;;14.57;9.67;;;;;;;;;;4932841;29;20548;-88
2021/01/26 06:01:30;;;;;;;12.50;8.53;;;;;;;;;;4942495;29;20635;-88
2021/01/26 06:04:35;;;;;;;12.17;8.60;;;;;;;;;;4916197;29;20703;-88
2021/01/26 06:07:39;;;;;;;13.17;8.57;;;;;;;;;;4935249;29;20612;-88
2021/01/26 06:10:44;;;;;;;12.33;8.53;;;;;;;;;;4924392;29;20635;-88
2021/01/26 06:13:48;;;;;;;13.90;9.30;;;;;;;;;;4935803;29;20603;-88
2021/01/26 06:17:03;;;;;;;14.43;8.43;;;;;;;;;;4943389;29;20622;-89
2021/01/26 06:20:13;;;;;;;11.13;7.83;;;;;;;;;;4943356;29;20615;-88
2021/01/26 06:23:20;;;;;;;12.63;8.57;;;;;;;;;;4942215;29;20600;-88
2021/01/26 06:26:33;;;;;;;11.30;7.83;;;;;;;;;;4944053;29;20982;-88
2021/01/26 06:29:49;;;;;;;11.83;8.43;;;;;;;;;;4955392;28;20626;-89
2021/01/26 06:33:22;;;;;;;11.50;7.60;;;;;;;;;;4958632;29;20543;-89
2021/01/26 06:37:04;;;;;;;10.27;7.33;;;;;;;;;;4934529;29;20612;-89
2021/01/26 06:40:14;;;;;;;10.77;7.27;;;;;;;;;;4917668;29;21194;-88
2021/01/26 06:43:40;;;;;;;14.17;8.00;;;;;;;;;;4924834;29;20604;-88
2021/01/26 06:46:58;;;;;;;13.70;7.77;;;;;;;;;;4920024;29;20549;-88
2021/01/26 06:50:17;;;;;;;13.27;8.30;;;;;;;;;;4908617;29;20621;-88
2021/01/26 06:53:33;;;;;;;10.37;6.93;;;;;;;;;;4909038;29;20599;-89
2021/01/26 06:56:56;;;;;;;14.70;8.50;;;;;;;;;;4948711;29;20615;-88
2021/01/26 07:00:18;;;;;;;12.73;8.40;;;;;;;;;;4941407;29;20732;-87
2021/01/26 07:04:05;;;;;;;10.63;8.10;;;;;;;;;;4942436;29;20593;-89
2021/01/26 07:07:40;;;;;;;10.93;8.37;;;;;;;;;;4938733;29;20616;-89
2021/01/26 07:10:56;;;;;;;11.30;7.73;;;;;;;;;;4949555;29;20647;-89
2021/01/26 07:14:24;;;;;;;11.20;7.87;;;;;;;;;;4927779;29;20537;-89
2021/01/26 07:17:39;;;;;;;9.63;6.40;;;;;;;;;;4934875;29;20584;-89
2021/01/26 07:21:17;;;;;;;8.50;5.87;;;;;;;;;;4956862;28;20650;-89
2021/01/26 07:25:05;;;;;;;9.97;5.57;;;;;;;;;;4946572;29;21074;-88
2021/01/26 07:28:46;;;;;;;9.23;5.97;;;;;;;;;;4917961;29;20597;-89
2021/01/26 07:31:58;;;;;;;12.40;6.17;;;;;;;;;;4906999;28;20610;-89
2021/01/26 07:35:16;;;;;;;11.40;6.90;;;;;;;;;;4899027;29;20901;-88
2021/01/26 07:38:41;;;;;;;10.23;6.50;;;;;;;;;;4949306;29;20541;-89
2021/01/26 07:41:55;;;;;;;10.13;6.33;;;;;;;;;;4937399;29;20612;-89
2021/01/26 07:45:07;;;;;;;8.83;5.77;;;;;;;;;;4946262;28;21147;-89
2021/01/26 07:48:53;;;;;;;9.00;6.47;;;;;;;;;;4931178;29;20599;-89
2021/01/26 07:52:01;;;;;;;8.73;5.70;;;;;;;;;;4945142;29;20583;-89
2021/01/26 07:55:30;;;;;;;9.70;7.23;;;;;;;;;;4946715;29;20548;-89
2021/01/26 07:58:36;;;;;;;10.27;6.57;;;;;;;;;;4922287;29;20940;-89
2021/01/26 08:01:45;;;;;;;9.23;6.87;;;;;;;;;;4912578;29;20593;-88
2021/01/26 08:04:50;;;;;;;10.50;6.20;;;;;;;;;;4946120;29;21161;-89
2021/01/26 08:08:02;;;;;;;9.17;6.10;;;;;;;;;;4935973;29;20551;-89
2021/01/26 08:11:11;;;;;;;7.90;5.90;;;;;;;;;;4947048;29;20634;-89
2021/01/26 08:14:16;;;;;;;8.70;6.97;;;;;;;;;;4929535;29;20616;-89
2021/01/26 08:17:31;;;;;;;7.90;5.57;;;;;;;;;;4943344;29;20603;-88
2021/01/26 08:20:35;;;;;;;10.87;6.90;;;;;;;;;;4930535;29;20647;-88
2021/01/26 08:23:40;;;;;;;12.80;7.20;;;;;;;;;;4935340;29;20590;-88
2021/01/26 08:26:45;;;;;;;8.83;6.73;;;;;;;;;;4944614;29;20587;-88
2021/01/26 08:29:49;;;;;;;10.63;6.20;;;;;;;;;;4944936;29;20958;-88
2021/01/26 08:33:15;;;;;;;8.63;6.40;;;;;;;;;;4943142;29;20615;-88
2021/01/26 08:36:28;;;;;;;12.10;7.07;;;;;;;;;;4943319;29;20611;-88
2021/01/26 08:39:49;;;;;;;11.40;6.73;;;;;;;;;;4922902;29;20652;-87
2021/01/26 08:43:06;;;;;;;13.90;6.00;;;;;;;;;;4942194;29;20628;-88
2021/01/26 08:46:28;;;;;;;10.27;6.77;;;;;;;;;;4954483;29;20587;-88
2021/01/26 08:49:35;;;;;;;10.77;6.23;;;;;;;;;;4942925;28;20654;-87
2021/01/26 08:52:39;;;;;;;9.10;6.77;;;;;;;;;;4905989;28;20583;-87
2021/01/26 08:55:45;;;;;;;12.47;7.07;;;;;;;;;;4928953;29;20592;-88
2021/01/26 08:58:53;;;;;;;7.03;5.17;;;;;;;;;;4951127;28;20603;-87
2021/01/26 09:01:59;;;;;;;9.63;5.43;;;;;;;;;;4936013;29;20975;-88
2021/01/26 09:05:05;;;;;;;7.93;5.87;;;;;;;;;;4939085;29;20619;-88
2021/01/26 09:08:09;;;;;;;5.23;4.20;;;;;;;;;;4925600;29;20552;-88
2021/01/26 09:11:15;;;;;;;7.93;5.23;;;;;;;;;;4944867;28;21200;-88
2021/01/26 09:14:41;;;;;;;10.47;7.33;;;;;;;;;;4944797;29;21180;-88
2021/01/26 09:17:45;;;;;;;10.90;5.50;;;;;;;;;;4956584;29;20884;-88
2021/01/26 09:20:57;;;;;;;19.13;9.83;;;;;;;;;;4942647;29;20694;-88
2021/01/26 09:24:02;;;;;;;8.90;5.33;;;;;;;;;;4915328;29;20604;-88
2021/01/26 09:27:27;;;;;;;12.37;6.87;;;;;;;;;;4925644;29;20598;-88
2021/01/26 09:30:32;;;;;;;8.00;5.13;;;;;;;;;;4925321;29;20632;-88
2021/01/26 09:33:36;;;;;;;11.67;6.50;;;;;;;;;;4936516;29;20897;-88
2021/01/26 09:36:40;;;;;;;9.50;5.70;;;;;;;;;;4926316;29;20576;-88
2021/01/26 09:39:45;;;;;;;7.17;4.60;;;;;;;;;;4931525;29;20663;-88
2021/01/26 09:42:49;;;;;;;10.83;7.97;;;;;;;;;;4926077;29;20604;-89
2021/01/26 09:46:04;;;;;;;7.73;5.27;;;;;;;;;;4925511;29;20580;-88
2021/01/26 09:49:20;;;;;;;6.93;5.77;;;;;;;;;;4925001;29;20636;-89
2021/01/26 09:52:55;;;;;;;7.40;4.60;;;;;;;;;;4933621;29;21174;-88
2021/01/26 09:55:59;;;;;;;9.93;6.57;;;;;;;;;;4925562;29;20552;-87
2021/01/26 09:59:06;;;;;;;9.97;6.27;;;;;;;;;;4924452;29;20585;-87
2021/01/26 10:02:13;;;;;;;5.53;4.17;;;;;;;;;;4935911;29;21172;-88
2021/01/26 10:05:20;;;;;;;6.77;4.00;;;;;;;;;;4925812;29;20607;-88
2021/01/26 10:08:30;;;;;;;17.10;15.27;;;;;;;;;;4917424;29;20971;-87
2021/01/26 10:11:34;;;;;;;5.90;3.90;;;;;;;;;;4939006;29;20553;-87
2021/01/26 10:14:38;;;;;;;9.20;4.37;;;;;;;;;;4938872;29;20612;-87
2021/01/26 10:17:49;;;;;;;4.57;3.17;;;;;;;;;;4898681;29;20558;-87
2021/01/26 10:20:58;;;;;;;6.80;4.03;;;;;;;;;;4920340;29;20629;-86
2021/01/26 10:24:28;;;;;;;8.03;5.83;;;;;;;;;;4912916;29;20604;-86
2021/01/26 10:27:36;;;;;;;5.43;3.93;;;;;;;;;;4909532;29;20558;-87
2021/01/26 10:30:44;;;;;;;5.97;5.30;;;;;;;;;;4898262;29;20625;-87
2021/01/26 10:33:49;;;;;;;6.13;5.13;;;;;;;;;;4909059;29;20550;-87
2021/01/26 10:37:17;;;;;;;7.87;4.33;;;;;;;;;;4920231;29;20549;-86
2021/01/26 10:40:22;;;;;;;5.40;4.20;;;;;;;;;;4921782;29;20648;-87
2021/01/26 10:43:27;;;;;;;6.07;3.87;;;;;;;;;;4919835;29;20605;-87
2021/01/26 10:46:40;;;;;;;7.03;4.40;;;;;;;;;;4917138;29;20586;-86
2021/01/26 10:49:52;;;;;;;5.60;3.93;;;;;;;;;;4908802;29;20620;-86
2021/01/26 10:52:56;;;;;;;6.13;4.10;;;;;;;;;;4915630;29;21015;-86
2021/01/26 10:56:01;;;;;;;7.67;4.20;;;;;;;;;;4939454;29;20564;-86
2021/01/26 10:59:05;;;;;;;6.70;4.23;;;;;;;;;;4917567;29;20619;-85
2021/01/26 11:02:13;;;;;;;6.80;4.33;;;;;;;;;;4927365;29;21197;-85
2021/01/26 11:05:17;;;;;;;8.00;5.03;;;;;;;;;;4935940;29;20591;-84
2021/01/26 11:08:21;;;;;;;6.00;4.30;;;;;;;;;;4935449;29;20559;-86
2021/01/26 11:11:27;;;;;;;6.23;4.73;;;;;;;;;;4935640;29;20551;-85
2021/01/26 11:14:31;;;;;;;5.43;3.40;;;;;;;;;;4935248;29;20594;-85
2021/01/26 11:17:35;;;;;;;4.57;3.40;;;;;;;;;;4934193;29;20606;-83
2021/01/26 11:20:40;;;;;;;5.13;3.50;;;;;;;;;;4908419;29;20628;-85
2021/01/26 11:23:44;;;;;;;4.83;3.43;;;;;;;;;;4919169;29;20605;-84
2021/01/26 11:26:48;;;;;;;5.70;3.57;;;;;;;;;;4931999;29;20589;-84
2021/01/26 11:29:52;;;;;;;8.37;5.70;;;;;;;;;;4934042;29;20656;-84
2021/01/26 11:32:56;;;;;;;12.47;7.13;;;;;;;;;;4907776;29;20549;-84
2021/01/26 11:36:01;;;;;;;20.83;9.67;;;;;;;;;;4908014;29;20565;-84
2021/01/26 11:39:07;;;;;;;27.43;16.07;;;;;;;;;;4949026;28;21153;-85
2021/01/26 11:42:12;;;;;;;9.73;4.50;;;;;;;;;;4935672;29;20595;-84
2021/01/26 11:45:21;;;;;;;5.63;4.27;;;;;;;;;;4908825;29;20550;-84
2021/01/26 11:48:25;;;;;;;11.97;4.23;;;;;;;;;;4946062;29;20540;-84
2021/01/26 11:51:30;;;;;;;23.03;11.37;;;;;;;;;;4934641;29;20560;-84
2021/01/26 11:54:34;;;;;;;62.03;23.03;;;;;;;;;;4917901;29;20602;-84
2021/01/26 11:57:38;;;;;;;7.07;3.87;;;;;;;;;;4907197;29;20605;-84
2021/01/26 12:00:43;;;;;;;7.10;4.73;;;;;;;;;;4936961;29;21119;-84
2021/01/26 12:03:47;;;;;;;5.87;4.40;;;;;;;;;;4939169;29;20640;-84
2021/01/26 12:06:52;;;;;;;5.33;3.90;;;;;;;;;;4937170;29;20545;-84
2021/01/26 12:09:57;;;;;;;9.03;4.37;;;;;;;;;;4955322;28;21018;-83
2021/01/26 12:13:01;;;;;;;8.47;5.10;;;;;;;;;;4956430;29;20544;-83
2021/01/26 12:16:05;;;;;;;7.17;3.63;;;;;;;;;;4955906;29;20559;-83
2021/01/26 12:19:09;;;;;;;7.70;4.00;;;;;;;;;;4955883;28;20623;-84
2021/01/26 12:22:14;;;;;;;6.73;3.63;;;;;;;;;;4927695;29;21134;-84
2021/01/26 12:25:19;;;;;;;8.23;3.97;;;;;;;;;;4936619;29;20553;-84
2021/01/26 12:28:24;;;;;;;6.67;3.63;;;;;;;;;;4936207;29;20568;-83
2021/01/26 12:31:28;;;;;;;7.43;3.77;;;;;;;;;;4908830;29;20940;-83
2021/01/26 12:34:33;;;;;;;6.13;3.97;;;;;;;;;;4934199;29;20539;-83
2021/01/26 12:37:37;;;;;;;5.50;3.80;;;;;;;;;;4943380;29;20559;-83
2021/01/26 12:40:42;;;;;;;5.30;3.53;;;;;;;;;;4906891;29;20999;-84
2021/01/26 12:43:47;;;;;;;6.33;3.80;;;;;;;;;;4950581;23;20993;-85
2021/01/26 12:46:53;;;;;;;6.53;4.00;;;;;;;;;;4914747;29;20584;-86
2021/01/26 12:49:57;;;;;;;5.10;3.33;;;;;;;;;;4940335;29;20607;-85
2021/01/26 12:53:03;;;;;;;10.30;4.73;;;;;;;;;;4945532;29;20584;-85
2021/01/26 12:56:07;;;;;;;6.37;4.00;;;;;;;;;;4910625;29;20581;-85
2021/01/26 12:59:11;;;;;;;5.00;3.63;;;;;;;;;;4887989;29;20554;-85
2021/01/26 13:02:15;;;;;;;6.10;3.23;;;;;;;;;;4898038;29;20562;-86
2021/01/26 13:05:20;;;;;;;5.80;4.07;;;;;;;;;;4920004;29;21223;-85
2021/01/26 13:08:25;;;;;;;10.00;7.13;;;;;;;;;;4888053;29;20550;-85
2021/01/26 13:11:29;;;;;;;6.67;4.67;;;;;;;;;;4876628;29;20558;-85
2021/01/26 13:14:33;;;;;;;8.37;4.37;;;;;;;;;;4898206;29;20621;-86
2021/01/26 13:17:39;;;;;;;4.97;3.73;;;;;;;;;;4908595;29;20562;-85
2021/01/26 13:20:43;;;;;;;9.03;4.17;;;;;;;;;;4920924;29;20600;-85
2021/01/26 13:23:47;;;;;;;5.07;3.73;;;;;;;;;;4924988;29;20663;-85
2021/01/26 13:26:51;;;;;;;6.73;3.63;;;;;;;;;;4935912;29;20623;-84
2021/01/26 13:29:55;;;;;;;7.53;3.73;;;;;;;;;;4935853;29;20927;-85
2021/01/26 13:32:59;;;;;;;11.03;3.57;;;;;;;;;;4935860;29;20548;-84
2021/01/26 13:36:03;;;;;;;5.87;4.00;;;;;;;;;;4925105;29;20553;-84
2021/01/26 13:39:07;;;;;;;11.43;4.33;;;;;;;;;;4913563;29;20557;-85
2021/01/26 13:42:11;;;;;;;10.60;7.20;;;;;;;;;;4923954;29;20548;-83
2021/01/26 13:45:18;;;;;;;11.00;6.50;;;;;;;;;;4905615;29;20636;-85
2021/01/26 13:48:23;;;;;;;9.53;5.00;;;;;;;;;;4906213;29;20925;-84
2021/01/26 13:51:28;;;;;;;107.00;49.53;;;;;;;;;;4905585;29;20578;-84
2021/01/26 13:54:32;;;;;;;21.93;10.40;;;;;;;;;;4916727;29;20620;-84
2021/01/26 13:57:36;;;;;;;10.73;8.13;;;;;;;;;;4917017;29;20549;-84
2021/01/26 14:00:41;;;;;;;6.57;4.43;;;;;;;;;;4917427;29;21100;-85
2021/01/26 14:03:47;;;;;;;7.53;4.10;;;;;;;;;;4916299;29;20660;-83
2021/01/26 14:06:51;;;;;;;5.43;3.67;;;;;;;;;;4895597;29;20554;-84
2021/01/26 14:09:55;;;;;;;6.00;3.50;;;;;;;;;;4916726;29;20557;-85
2021/01/26 14:13:01;;;;;;;8.23;4.83;;;;;;;;;;4916544;29;20553;-84
2021/01/26 14:16:06;;;;;;;11.33;5.40;;;;;;;;;;4916315;29;20961;-85
2021/01/26 14:19:10;;;;;;;11.40;5.87;;;;;;;;;;4927024;29;20628;-86
2021/01/26 14:22:16;;;;;;;11.07;7.83;;;;;;;;;;4917459;29;20605;-86
2021/01/26 14:25:20;;;;;;;15.57;9.30;;;;;;;;;;4894783;29;21215;-86
2021/01/26 14:28:25;;;;;;;11.77;6.40;;;;;;;;;;4894921;29;20562;-86
2021/01/26 14:31:33;;;;;;;11.90;7.40;;;;;;;;;;4876071;29;21108;-87
2021/01/26 14:34:37;;;;;;;11.10;6.10;;;;;;;;;;4897354;29;20626;-87
2021/01/26 14:37:41;;;;;;;10.07;5.70;;;;;;;;;;4886550;29;20550;-87
2021/01/26 14:40:46;;;;;;;11.60;9.03;;;;;;;;;;4886286;29;20566;-87
2021/01/26 14:43:51;;;;;;;8.17;5.53;;;;;;;;;;4903487;29;20672;-86
2021/01/26 14:46:57;;;;;;;7.40;5.03;;;;;;;;;;4894725;29;20545;-86
2021/01/26 14:50:03;;;;;;;8.10;5.17;;;;;;;;;;4916080;29;20565;-86
2021/01/26 14:53:09;;;;;;;7.07;4.43;;;;;;;;;;4898062;29;20913;-82
2021/01/26 14:56:14;;;;;;;11.03;5.10;;;;;;;;;;4921149;29;20561;-81
2021/01/26 14:59:19;;;;;;;7.47;4.80;;;;;;;;;;4898425;29;21080;-82
2021/01/26 15:02:23;;;;;;;8.70;4.90;;;;;;;;;;4898968;29;20897;-85
2021/01/26 15:05:28;;;;;;;9.63;5.50;;;;;;;;;;4916271;29;21250;-84
2021/01/26 15:08:33;;;;;;;12.30;5.87;;;;;;;;;;4897723;29;20565;-84
2021/01/26 15:11:37;;;;;;;10.03;6.60;;;;;;;;;;4908325;29;21108;-84
2021/01/26 15:14:41;;;;;;;6.50;4.43;;;;;;;;;;4897912;29;21191;-84
2021/01/26 15:17:46;;;;;;;9.07;4.83;;;;;;;;;;4919871;29;20561;-83
2021/01/26 15:20:51;;;;;;;10.00;4.93;;;;;;;;;;4933686;29;20591;-84
2021/01/26 15:23:55;;;;;;;11.03;5.63;;;;;;;;;;4913614;29;20672;-84
2021/01/26 15:27:00;;;;;;;14.67;6.20;;;;;;;;;;4908937;29;20553;-84
2021/01/26 15:30:13;;;;;;;10.97;5.23;;;;;;;;;;4907763;29;20561;-83
2021/01/26 15:33:17;;;;;;;18.97;9.27;;;;;;;;;;4889673;29;20547;-84
2021/01/26 15:36:21;;;;;;;9.30;5.97;;;;;;;;;;4878786;29;20562;-84
2021/01/26 15:39:25;;;;;;;15.73;7.83;;;;;;;;;;4889990;29;20542;-85
2021/01/26 15:42:29;;;;;;;9.50;4.60;;;;;;;;;;4889289;29;20574;-84
2021/01/26 15:45:33;;;;;;;9.73;6.17;;;;;;;;;;4889317;29;20637;-83
2021/01/26 15:48:38;;;;;;;12.80;5.93;;;;;;;;;;4889728;29;20628;-84
2021/01/26 15:51:42;;;;;;;10.17;6.53;;;;;;;;;;4879106;29;20609;-84
2021/01/26 15:54:46;;;;;;;14.23;7.07;;;;;;;;;;4912924;29;20647;-84
2021/01/26 15:57:50;;;;;;;10.73;5.43;;;;;;;;;;4911243;29;20605;-84
2021/01/26 16:00:55;;;;;;;10.53;6.03;;;;;;;;;;4928395;29;20600;-84
2021/01/26 16:03:59;;;;;;;12.87;5.50;;;;;;;;;;4925876;29;21023;-84
2021/01/26 16:07:03;;;;;;;12.43;6.07;;;;;;;;;;4915920;29;20611;-84
2021/01/26 16:10:09;;;;;;;20.67;9.87;;;;;;;;;;4915902;29;20552;-84
2021/01/26 16:13:14;;;;;;;14.77;8.07;;;;;;;;;;4916055;29;20544;-84
2021/01/26 16:16:18;;;;;;;10.87;7.37;;;;;;;;;;4899415;29;20534;-84
2021/01/26 16:19:22;;;;;;;22.40;12.27;;;;;;;;;;4909271;29;20623;-84
2021/01/26 16:22:26;;;;;;;11.07;8.47;;;;;;;;;;4899470;29;20601;-84
2021/01/26 16:25:30;;;;;;;19.83;14.30;;;;;;;;;;4900210;29;20649;-84
2021/01/26 16:28:35;;;;;;;8.77;5.83;;;;;;;;;;4888487;29;20883;-84
2021/01/26 16:31:39;;;;;;;8.40;3.50;;;;;;;;;;4926556;29;21340;-84
2021/01/26 16:34:44;;;;;;;8.67;3.67;;;;;;;;;;4936878;29;20650;-83
2021/01/26 16:37:48;;;;;;;5.70;3.33;;;;;;;;;;4915210;29;20627;-84
2021/01/26 16:40:54;;;;;;;5.50;3.47;;;;;;;;;;4925670;29;20557;-84
2021/01/26 16:43:58;;;;;;;10.00;4.47;;;;;;;;;;4937342;29;20660;-84
2021/01/26 16:47:03;;;;;;;14.83;3.47;;;;;;;;;;4926839;29;20556;-84
2021/01/26 16:50:10;;;;;;;7.90;3.83;;;;;;;;;;4936733;29;20564;-84
2021/01/26 16:53:15;;;;;;;5.30;2.83;;;;;;;;;;4926077;29;20659;-84
2021/01/26 16:56:20;;;;;;;3.80;2.80;;;;;;;;;;4925525;29;21111;-84
2021/01/26 16:59:24;;;;;;;16.30;8.67;;;;;;;;;;4877463;29;20558;-84
2021/01/26 17:02:28;;;;;;;30.30;13.40;;;;;;;;;;4898812;29;20895;-83
2021/01/26 17:05:38;;;;;;;25.90;9.00;;;;;;;;;;4898623;29;20666;-84
2021/01/26 17:08:43;;;;;;;24.17;8.97;;;;;;;;;;4887781;29;20554;-83
2021/01/26 17:11:47;;;;;;;31.37;16.63;;;;;;;;;;4896076;29;20592;-84
2021/01/26 17:14:51;;;;;;;22.50;10.30;;;;;;;;;;4924963;29;20636;-84
2021/01/26 17:17:56;;;;;;;13.83;6.87;;;;;;;;;;4936490;29;20556;-84
2021/01/26 17:21:00;;;;;;;79.87;32.07;;;;;;;;;;4911586;29;20597;-84
2021/01/26 17:24:04;;;;;;;17.70;8.73;;;;;;;;;;4895527;29;20644;-83
2021/01/26 17:27:09;;;;;;;10.37;5.43;;;;;;;;;;4928378;29;20600;-83
2021/01/26 17:30:15;;;;;;;13.40;6.90;;;;;;;;;;4936058;29;20897;-84
2021/01/26 17:33:20;;;;;;;12.50;4.87;;;;;;;;;;4914821;29;20556;-84
2021/01/26 17:36:24;;;;;;;11.17;4.97;;;;;;;;;;4938038;29;21072;-84
2021/01/26 17:39:29;;;;;;;10.20;5.13;;;;;;;;;;4918478;29;20560;-83
2021/01/26 17:42:33;;;;;;;9.57;3.60;;;;;;;;;;4924845;29;20561;-83
2021/01/26 17:45:37;;;;;;;5.90;3.37;;;;;;;;;;4909184;29;20668;-84
2021/01/26 17:48:42;;;;;;;5.40;3.20;;;;;;;;;;4936284;29;20893;-84
2021/01/26 17:51:47;;;;;;;8.23;4.03;;;;;;;;;;4936937;29;20556;-84
2021/01/26 17:54:52;;;;;;;8.00;5.10;;;;;;;;;;4895189;29;20666;-84
2021/01/26 17:57:57;;;;;;;10.47;5.67;;;;;;;;;;4904752;29;20594;-84
2021/01/26 18:01:01;;;;;;;10.67;4.63;;;;;;;;;;4911308;29;20976;-84
2021/01/26 18:04:05;;;;;;;10.07;5.27;;;;;;;;;;4907320;29;20660;-84
2021/01/26 18:07:09;;;;;;;9.13;5.50;;;;;;;;;;4917100;29;20557;-84
2021/01/26 18:10:15;;;;;;;5.87;3.87;;;;;;;;;;4916876;29;20550;-84
2021/01/26 18:13:19;;;;;;;8.67;3.53;;;;;;;;;;4906509;29;21084;-84
2021/01/26 18:16:25;;;;;;;9.67;3.77;;;;;;;;;;4932133;29;20619;-82
2021/01/26 18:19:29;;;;;;;5.70;4.20;;;;;;;;;;4921047;29;20561;-85
2021/01/26 18:22:34;;;;;;;6.80;4.97;;;;;;;;;;4896240;29;20550;-84
2021/01/26 18:25:39;;;;;;;7.77;4.03;;;;;;;;;;4895751;29;21207;-84
2021/01/26 18:28:43;;;;;;;10.70;5.47;;;;;;;;;;4909565;29;20561;-83
2021/01/26 18:31:47;;;;;;;7.10;4.57;;;;;;;;;;4898817;29;20612;-84
2021/01/26 18:34:51;;;;;;;7.03;4.63;;;;;;;;;;4921978;29;20624;-84
2021/01/26 18:37:56;;;;;;;10.03;5.10;;;;;;;;;;4898689;29;20548;-84